sensor_id;sensor_type;location;lat;lon;timestamp;temperature;humidity
52323;DHT22;38263;52.920;6.238;2022-09-06T00:01:26;21.00;99.90
52323;DHT22;38263;52.920;6.238;2022-09-06T00:03:52;21.00;99.90
52323;DHT22;38263;52.920;6.238;2022-09-06T00:06:18;20.80;99.90
52323;DHT22;38263;52.920;6.238;2022-09-06T00:08:45;21.20;99.90
52323;DHT22;38263;52.920;6.238;2022-09-06T00:11:12;20.80;99.90
52323;DHT22;38263;52.920;6.238;2022-09-06T00:13:38;21.20;99.90
52323;DHT22;38263;52.920;6.238;2022-09-06T00:16:16;21.00;99.90
52323;DHT22;38263;52.920;6.238;2022-09-06T00:18:42;21.20;99.90
52323;DHT22;38263;52.920;6.238;2022-09-06T00:21:17;20.80;99.90
52323;DHT22;38263;52.920;6.238;2022-09-06T00:23:43;20.60;99.90
52323;DHT22;38263;52.920;6.238;2022-09-06T00:26:09;20.70;99.90
52323;DHT22;38263;52.920;6.238;2022-09-06T00:28:34;20.50;99.90
52323;DHT22;38263;52.920;6.238;2022-09-06T00:31:11;20.80;99.90
52323;DHT22;38263;52.920;6.238;2022-09-06T00:33:38;20.60;99.90
52323;DHT22;38263;52.920;6.238;2022-09-06T00:36:03;20.60;99.90
52323;DHT22;38263;52.920;6.238;2022-09-06T00:38:29;20.60;99.90
52323;DHT22;38263;52.920;6.238;2022-09-06T00:40:55;20.50;99.90
52323;DHT22;38263;52.920;6.238;2022-09-06T00:43:21;20.40;99.90
52323;DHT22;38263;52.920;6.238;2022-09-06T00:45:47;20.40;99.90
52323;DHT22;38263;52.920;6.238;2022-09-06T00:48:13;20.30;99.90
52323;DHT22;38263;52.920;6.238;2022-09-06T00:50:39;20.50;99.90
52323;DHT22;38263;52.920;6.238;2022-09-06T00:53:04;20.30;99.90
52323;DHT22;38263;52.920;6.238;2022-09-06T00:55:30;20.30;99.90
52323;DHT22;38263;52.920;6.238;2022-09-06T00:57:56;20.20;99.90
52323;DHT22;38263;52.920;6.238;2022-09-06T01:00:21;20.40;99.90
52323;DHT22;38263;52.920;6.238;2022-09-06T01:02:48;20.50;99.90
52323;DHT22;38263;52.920;6.238;2022-09-06T01:05:14;20.50;99.90
52323;DHT22;38263;52.920;6.238;2022-09-06T01:08:02;20.20;99.90
52323;DHT22;38263;52.920;6.238;2022-09-06T01:21:40;20.30;99.90
52323;DHT22;38263;52.920;6.238;2022-09-06T01:29:51;20.30;99.90
52323;DHT22;38263;52.920;6.238;2022-09-06T01:35:25;20.20;99.90
52323;DHT22;38263;52.920;6.238;2022-09-06T01:37:52;20.30;99.90
52323;DHT22;38263;52.920;6.238;2022-09-06T01:40:18;20.30;99.90
52323;DHT22;38263;52.920;6.238;2022-09-06T01:42:45;20.20;99.90
52323;DHT22;38263;52.920;6.238;2022-09-06T01:45:23;20.20;99.90
52323;DHT22;38263;52.920;6.238;2022-09-06T01:48:18;20.30;99.90
52323;DHT22;38263;52.920;6.238;2022-09-06T01:51:01;20.40;99.90
52323;DHT22;38263;52.920;6.238;2022-09-06T01:53:59;20.20;99.90
52323;DHT22;38263;52.920;6.238;2022-09-06T02:01:41;19.90;99.90
52323;DHT22;38263;52.920;6.238;2022-09-06T02:04:21;20.10;99.90
52323;DHT22;38263;52.920;6.238;2022-09-06T02:07:25;19.80;99.90
52323;DHT22;38263;52.920;6.238;2022-09-06T02:10:05;20.10;99.90
52323;DHT22;38263;52.920;6.238;2022-09-06T02:12:35;20.10;99.90
52323;DHT22;38263;52.920;6.238;2022-09-06T02:15:21;20.10;99.90
52323;DHT22;38263;52.920;6.238;2022-09-06T02:17:57;20.00;99.90
52323;DHT22;38263;52.920;6.238;2022-09-06T02:20:28;19.80;99.90
52323;DHT22;38263;52.920;6.238;2022-09-06T02:22:56;20.00;99.90
52323;DHT22;38263;52.920;6.238;2022-09-06T02:25:28;19.80;99.90
52323;DHT22;38263;52.920;6.238;2022-09-06T02:27:56;19.70;99.90
52323;DHT22;38263;52.920;6.238;2022-09-06T02:30:21;20.10;99.90
52323;DHT22;38263;52.920;6.238;2022-09-06T02:32:53;19.70;99.90
52323;DHT22;38263;52.920;6.238;2022-09-06T02:35:20;19.80;99.90
52323;DHT22;38263;52.920;6.238;2022-09-06T02:37:46;20.20;99.90
52323;DHT22;38263;52.920;6.238;2022-09-06T02:40:12;20.00;99.90
52323;DHT22;38263;52.920;6.238;2022-09-06T02:42:39;19.80;99.90
52323;DHT22;38263;52.920;6.238;2022-09-06T02:45:05;19.80;99.90
52323;DHT22;38263;52.920;6.238;2022-09-06T02:47:30;19.90;99.90
52323;DHT22;38263;52.920;6.238;2022-09-06T02:49:56;20.10;99.90
52323;DHT22;38263;52.920;6.238;2022-09-06T02:52:21;20.00;99.90
52323;DHT22;38263;52.920;6.238;2022-09-06T02:54:47;19.90;99.90
52323;DHT22;38263;52.920;6.238;2022-09-06T02:57:12;19.80;99.90
52323;DHT22;38263;52.920;6.238;2022-09-06T02:59:38;20.20;99.90
52323;DHT22;38263;52.920;6.238;2022-09-06T03:02:04;19.70;99.90
52323;DHT22;38263;52.920;6.238;2022-09-06T03:04:29;19.80;99.90
52323;DHT22;38263;52.920;6.238;2022-09-06T03:06:56;20.00;99.90
52323;DHT22;38263;52.920;6.238;2022-09-06T03:09:21;19.70;99.90
52323;DHT22;38263;52.920;6.238;2022-09-06T03:11:47;19.70;99.90
52323;DHT22;38263;52.920;6.238;2022-09-06T03:14:12;19.70;99.90
52323;DHT22;38263;52.920;6.238;2022-09-06T03:16:40;19.90;99.90
52323;DHT22;38263;52.920;6.238;2022-09-06T03:19:06;19.60;99.90
52323;DHT22;38263;52.920;6.238;2022-09-06T03:21:31;19.80;99.90
52323;DHT22;38263;52.920;6.238;2022-09-06T03:23:57;19.80;99.90
52323;DHT22;38263;52.920;6.238;2022-09-06T03:26:24;19.60;99.90
52323;DHT22;38263;52.920;6.238;2022-09-06T03:28:49;19.70;99.90
52323;DHT22;38263;52.920;6.238;2022-09-06T03:31:15;20.10;99.90
52323;DHT22;38263;52.920;6.238;2022-09-06T03:33:40;19.90;99.90
52323;DHT22;38263;52.920;6.238;2022-09-06T03:36:06;19.90;99.90
52323;DHT22;38263;52.920;6.238;2022-09-06T03:38:32;19.70;99.90
52323;DHT22;38263;52.920;6.238;2022-09-06T03:40:57;19.70;99.90
52323;DHT22;38263;52.920;6.238;2022-09-06T03:43:24;19.70;99.90
52323;DHT22;38263;52.920;6.238;2022-09-06T03:45:52;19.60;99.90
52323;DHT22;38263;52.920;6.238;2022-09-06T03:48:19;19.60;99.90
52323;DHT22;38263;52.920;6.238;2022-09-06T03:50:49;19.60;99.90
52323;DHT22;38263;52.920;6.238;2022-09-06T03:53:16;19.40;99.90
52323;DHT22;38263;52.920;6.238;2022-09-06T03:55:46;19.50;99.90
52323;DHT22;38263;52.920;6.238;2022-09-06T03:58:13;19.60;99.90
52323;DHT22;38263;52.920;6.238;2022-09-06T04:00:40;19.40;99.90
52323;DHT22;38263;52.920;6.238;2022-09-06T04:03:05;19.50;99.90
52323;DHT22;38263;52.920;6.238;2022-09-06T04:05:31;19.50;99.90
52323;DHT22;38263;52.920;6.238;2022-09-06T04:07:56;19.60;99.90
52323;DHT22;38263;52.920;6.238;2022-09-06T04:10:22;19.30;99.90
52323;DHT22;38263;52.920;6.238;2022-09-06T04:12:48;19.30;99.90
52323;DHT22;38263;52.920;6.238;2022-09-06T04:15:13;19.50;99.90
52323;DHT22;38263;52.920;6.238;2022-09-06T04:17:42;19.40;99.90
52323;DHT22;38263;52.920;6.238;2022-09-06T04:20:09;19.50;99.90
52323;DHT22;38263;52.920;6.238;2022-09-06T04:22:35;19.30;99.90
52323;DHT22;38263;52.920;6.238;2022-09-06T04:25:00;19.30;99.90
52323;DHT22;38263;52.920;6.238;2022-09-06T04:27:26;19.20;99.90
52323;DHT22;38263;52.920;6.238;2022-09-06T04:29:51;19.20;99.90
52323;DHT22;38263;52.920;6.238;2022-09-06T04:32:17;19.20;99.90
52323;DHT22;38263;52.920;6.238;2022-09-06T04:34:42;19.20;99.90
52323;DHT22;38263;52.920;6.238;2022-09-06T04:37:08;19.00;99.90
52323;DHT22;38263;52.920;6.238;2022-09-06T04:39:33;19.00;99.90
52323;DHT22;38263;52.920;6.238;2022-09-06T04:41:59;19.20;99.90
52323;DHT22;38263;52.920;6.238;2022-09-06T04:44:24;19.10;99.90
52323;DHT22;38263;52.920;6.238;2022-09-06T04:46:50;19.00;99.90
52323;DHT22;38263;52.920;6.238;2022-09-06T04:49:26;19.10;99.90
52323;DHT22;38263;52.920;6.238;2022-09-06T04:51:52;18.90;99.90
52323;DHT22;38263;52.920;6.238;2022-09-06T04:54:17;19.00;99.90
52323;DHT22;38263;52.920;6.238;2022-09-06T04:56:43;19.00;99.90
52323;DHT22;38263;52.920;6.238;2022-09-06T04:59:08;19.00;99.90
52323;DHT22;38263;52.920;6.238;2022-09-06T05:01:34;18.90;99.90
52323;DHT22;38263;52.920;6.238;2022-09-06T05:03:59;18.80;99.90
52323;DHT22;38263;52.920;6.238;2022-09-06T05:06:25;18.80;99.90
52323;DHT22;38263;52.920;6.238;2022-09-06T05:08:51;18.50;99.90
52323;DHT22;38263;52.920;6.238;2022-09-06T05:11:16;18.80;99.90
52323;DHT22;38263;52.920;6.238;2022-09-06T05:13:42;19.00;99.90
52323;DHT22;38263;52.920;6.238;2022-09-06T05:16:09;18.90;99.90
52323;DHT22;38263;52.920;6.238;2022-09-06T05:18:35;18.70;99.90
52323;DHT22;38263;52.920;6.238;2022-09-06T05:21:00;18.90;99.90
52323;DHT22;38263;52.920;6.238;2022-09-06T05:23:27;18.90;99.90
52323;DHT22;38263;52.920;6.238;2022-09-06T05:25:52;18.90;99.90
52323;DHT22;38263;52.920;6.238;2022-09-06T05:28:18;18.90;99.90
52323;DHT22;38263;52.920;6.238;2022-09-06T05:30:44;18.50;99.90
52323;DHT22;38263;52.920;6.238;2022-09-06T05:33:11;18.50;99.90
52323;DHT22;38263;52.920;6.238;2022-09-06T05:35:37;18.50;99.90
52323;DHT22;38263;52.920;6.238;2022-09-06T05:38:03;18.40;99.90
52323;DHT22;38263;52.920;6.238;2022-09-06T05:40:29;18.40;99.90
52323;DHT22;38263;52.920;6.238;2022-09-06T05:42:54;18.10;99.90
52323;DHT22;38263;52.920;6.238;2022-09-06T05:45:20;18.30;99.90
52323;DHT22;38263;52.920;6.238;2022-09-06T05:47:45;18.10;99.90
52323;DHT22;38263;52.920;6.238;2022-09-06T05:50:11;18.10;99.90
52323;DHT22;38263;52.920;6.238;2022-09-06T05:52:36;18.20;99.90
52323;DHT22;38263;52.920;6.238;2022-09-06T05:55:04;18.50;99.90
52323;DHT22;38263;52.920;6.238;2022-09-06T05:57:30;18.20;99.90
52323;DHT22;38263;52.920;6.238;2022-09-06T05:59:55;18.40;99.90
52323;DHT22;38263;52.920;6.238;2022-09-06T06:02:21;18.30;99.90
52323;DHT22;38263;52.920;6.238;2022-09-06T06:04:47;18.40;99.90
52323;DHT22;38263;52.920;6.238;2022-09-06T06:07:13;18.30;99.90
52323;DHT22;38263;52.920;6.238;2022-09-06T06:09:39;18.20;99.90
52323;DHT22;38263;52.920;6.238;2022-09-06T06:12:05;18.20;99.90
52323;DHT22;38263;52.920;6.238;2022-09-06T06:14:31;18.30;99.90
52323;DHT22;38263;52.920;6.238;2022-09-06T06:16:56;18.20;99.90
52323;DHT22;38263;52.920;6.238;2022-09-06T06:19:22;18.30;99.90
52323;DHT22;38263;52.920;6.238;2022-09-06T06:21:47;18.20;99.90
52323;DHT22;38263;52.920;6.238;2022-09-06T06:24:13;18.50;99.90
52323;DHT22;38263;52.920;6.238;2022-09-06T06:26:39;18.50;99.90
52323;DHT22;38263;52.920;6.238;2022-09-06T06:29:05;18.30;99.90
52323;DHT22;38263;52.920;6.238;2022-09-06T06:31:34;18.30;99.90
52323;DHT22;38263;52.920;6.238;2022-09-06T06:34:00;18.30;99.90
52323;DHT22;38263;52.920;6.238;2022-09-06T06:36:30;18.20;99.90
52323;DHT22;38263;52.920;6.238;2022-09-06T06:38:58;18.10;99.90
52323;DHT22;38263;52.920;6.238;2022-09-06T06:41:26;18.00;99.90
52323;DHT22;38263;52.920;6.238;2022-09-06T06:43:57;18.20;99.90
52323;DHT22;38263;52.920;6.238;2022-09-06T06:46:25;18.30;99.90
52323;DHT22;38263;52.920;6.238;2022-09-06T06:48:52;18.30;99.90
52323;DHT22;38263;52.920;6.238;2022-09-06T06:51:29;18.40;99.90
52323;DHT22;38263;52.920;6.238;2022-09-06T06:53:55;18.10;99.90
52323;DHT22;38263;52.920;6.238;2022-09-06T06:56:25;18.40;99.90
52323;DHT22;38263;52.920;6.238;2022-09-06T06:58:53;18.50;99.90
52323;DHT22;38263;52.920;6.238;2022-09-06T07:01:21;18.30;99.90
52323;DHT22;38263;52.920;6.238;2022-09-06T07:03:47;18.50;99.90
52323;DHT22;38263;52.920;6.238;2022-09-06T07:06:14;18.60;99.90
52323;DHT22;38263;52.920;6.238;2022-09-06T07:08:40;18.30;99.90
52323;DHT22;38263;52.920;6.238;2022-09-06T07:11:07;18.50;99.90
52323;DHT22;38263;52.920;6.238;2022-09-06T07:13:34;18.60;99.90
52323;DHT22;38263;52.920;6.238;2022-09-06T07:16:15;18.40;99.90
52323;DHT22;38263;52.920;6.238;2022-09-06T07:18:42;18.60;99.90
52323;DHT22;38263;52.920;6.238;2022-09-06T07:21:15;18.20;99.90
52323;DHT22;38263;52.920;6.238;2022-09-06T07:23:42;18.60;99.90
52323;DHT22;38263;52.920;6.238;2022-09-06T07:26:16;18.60;99.90
52323;DHT22;38263;52.920;6.238;2022-09-06T07:28:42;18.60;99.90
52323;DHT22;38263;52.920;6.238;2022-09-06T07:31:08;18.70;99.90
52323;DHT22;38263;52.920;6.238;2022-09-06T07:33:35;18.60;99.90
52323;DHT22;38263;52.920;6.238;2022-09-06T07:36:02;18.40;99.90
52323;DHT22;38263;52.920;6.238;2022-09-06T07:38:29;18.40;99.90
52323;DHT22;38263;52.920;6.238;2022-09-06T07:40:57;18.70;99.90
52323;DHT22;38263;52.920;6.238;2022-09-06T07:43:23;19.00;99.90
52323;DHT22;38263;52.920;6.238;2022-09-06T07:45:58;19.00;99.90
52323;DHT22;38263;52.920;6.238;2022-09-06T07:48:23;19.00;99.90
52323;DHT22;38263;52.920;6.238;2022-09-06T07:50:49;19.30;99.90
52323;DHT22;38263;52.920;6.238;2022-09-06T07:53:14;19.50;99.90
52323;DHT22;38263;52.920;6.238;2022-09-06T07:55:40;19.80;99.90
52323;DHT22;38263;52.920;6.238;2022-09-06T07:58:05;20.00;99.90
52323;DHT22;38263;52.920;6.238;2022-09-06T08:00:31;20.20;99.90
52323;DHT22;38263;52.920;6.238;2022-09-06T08:02:57;20.10;99.90
52323;DHT22;38263;52.920;6.238;2022-09-06T08:05:22;20.20;99.90
52323;DHT22;38263;52.920;6.238;2022-09-06T08:07:48;20.20;99.90
52323;DHT22;38263;52.920;6.238;2022-09-06T08:10:13;20.00;99.90
52323;DHT22;38263;52.920;6.238;2022-09-06T08:12:39;20.10;99.90
52323;DHT22;38263;52.920;6.238;2022-09-06T08:15:05;20.00;99.90
52323;DHT22;38263;52.920;6.238;2022-09-06T08:17:30;20.10;99.90
52323;DHT22;38263;52.920;6.238;2022-09-06T08:20:01;20.00;99.90
52323;DHT22;38263;52.920;6.238;2022-09-06T08:22:30;20.20;99.90
52323;DHT22;38263;52.920;6.238;2022-09-06T08:24:56;20.20;99.90
52323;DHT22;38263;52.920;6.238;2022-09-06T08:27:21;20.50;99.90
52323;DHT22;38263;52.920;6.238;2022-09-06T08:29:47;20.40;99.90
52323;DHT22;38263;52.920;6.238;2022-09-06T08:32:12;20.70;99.90
52323;DHT22;38263;52.920;6.238;2022-09-06T08:34:38;20.50;99.90
52323;DHT22;38263;52.920;6.238;2022-09-06T08:37:04;20.60;99.90
52323;DHT22;38263;52.920;6.238;2022-09-06T08:39:29;20.80;99.90
52323;DHT22;38263;52.920;6.238;2022-09-06T08:42:02;20.90;99.90
52323;DHT22;38263;52.920;6.238;2022-09-06T08:44:43;20.90;99.90
52323;DHT22;38263;52.920;6.238;2022-09-06T08:47:14;21.00;99.90
52323;DHT22;38263;52.920;6.238;2022-09-06T08:49:42;21.20;99.90
52323;DHT22;38263;52.920;6.238;2022-09-06T08:52:22;21.30;99.90
52323;DHT22;38263;52.920;6.238;2022-09-06T08:54:54;21.50;99.90
52323;DHT22;38263;52.920;6.238;2022-09-06T08:57:48;21.70;99.90
52323;DHT22;38263;52.920;6.238;2022-09-06T09:00:24;22.00;99.90
52323;DHT22;38263;52.920;6.238;2022-09-06T09:03:03;21.70;99.90
52323;DHT22;38263;52.920;6.238;2022-09-06T09:05:33;21.90;99.90
52323;DHT22;38263;52.920;6.238;2022-09-06T09:08:14;22.50;99.90
52323;DHT22;38263;52.920;6.238;2022-09-06T09:10:46;22.40;99.90
52323;DHT22;38263;52.920;6.238;2022-09-06T09:13:19;22.50;99.90
52323;DHT22;38263;52.920;6.238;2022-09-06T09:15:46;22.50;99.90
52323;DHT22;38263;52.920;6.238;2022-09-06T09:18:14;22.90;99.90
52323;DHT22;38263;52.920;6.238;2022-09-06T09:20:41;23.00;99.90
52323;DHT22;38263;52.920;6.238;2022-09-06T09:23:07;23.20;99.90
52323;DHT22;38263;52.920;6.238;2022-09-06T09:25:33;23.40;99.90
52323;DHT22;38263;52.920;6.238;2022-09-06T09:28:00;24.00;99.90
52323;DHT22;38263;52.920;6.238;2022-09-06T09:30:45;23.60;99.90
52323;DHT22;38263;52.920;6.238;2022-09-06T09:33:34;23.90;99.90
52323;DHT22;38263;52.920;6.238;2022-09-06T09:36:08;24.30;99.90
52323;DHT22;38263;52.920;6.238;2022-09-06T09:38:43;24.60;99.90
52323;DHT22;38263;52.920;6.238;2022-09-06T09:41:10;24.60;99.90
52323;DHT22;38263;52.920;6.238;2022-09-06T09:44:14;24.70;99.90
52323;DHT22;38263;52.920;6.238;2022-09-06T09:46:40;25.00;99.90
52323;DHT22;38263;52.920;6.238;2022-09-06T09:49:09;25.20;99.90
52323;DHT22;38263;52.920;6.238;2022-09-06T09:52:03;25.10;99.90
52323;DHT22;38263;52.920;6.238;2022-09-06T09:54:31;25.20;99.90
52323;DHT22;38263;52.920;6.238;2022-09-06T09:56:57;25.70;99.90
52323;DHT22;38263;52.920;6.238;2022-09-06T09:59:41;25.60;99.90
52323;DHT22;38263;52.920;6.238;2022-09-06T10:07:46;26.00;99.90
52323;DHT22;38263;52.920;6.238;2022-09-06T10:12:46;25.90;99.90
52323;DHT22;38263;52.920;6.238;2022-09-06T10:15:35;26.20;99.90
52323;DHT22;38263;52.920;6.238;2022-09-06T10:18:01;25.90;99.90
52323;DHT22;38263;52.920;6.238;2022-09-06T10:20:41;26.40;99.90
52323;DHT22;38263;52.920;6.238;2022-09-06T10:23:26;26.20;99.90
52323;DHT22;38263;52.920;6.238;2022-09-06T10:26:11;25.80;99.90
52323;DHT22;38263;52.920;6.238;2022-09-06T10:28:39;26.00;99.90
52323;DHT22;38263;52.920;6.238;2022-09-06T10:39:59;25.90;99.90
52323;DHT22;38263;52.920;6.238;2022-09-06T10:42:46;25.90;99.90
52323;DHT22;38263;52.920;6.238;2022-09-06T10:48:29;25.90;99.90
52323;DHT22;38263;52.920;6.238;2022-09-06T10:51:33;25.90;99.90
52323;DHT22;38263;52.920;6.238;2022-09-06T10:54:06;26.10;99.90
52323;DHT22;38263;52.920;6.238;2022-09-06T10:59:29;26.10;99.90
52323;DHT22;38263;52.920;6.238;2022-09-06T11:02:14;26.10;99.90
52323;DHT22;38263;52.920;6.238;2022-09-06T11:04:42;26.00;99.90
52323;DHT22;38263;52.920;6.238;2022-09-06T11:07:27;26.00;99.90
52323;DHT22;38263;52.920;6.238;2022-09-06T11:12:42;26.20;99.90
52323;DHT22;38263;52.920;6.238;2022-09-06T11:15:12;27.50;99.90
52323;DHT22;38263;52.920;6.238;2022-09-06T11:17:42;26.40;99.90
52323;DHT22;38263;52.920;6.238;2022-09-06T11:20:17;26.40;99.90
52323;DHT22;38263;52.920;6.238;2022-09-06T11:23:17;26.40;99.90
52323;DHT22;38263;52.920;6.238;2022-09-06T11:28:58;26.40;99.90
52323;DHT22;38263;52.920;6.238;2022-09-06T11:31:30;26.40;99.90
52323;DHT22;38263;52.920;6.238;2022-09-06T11:34:11;26.20;99.90
52323;DHT22;38263;52.920;6.238;2022-09-06T11:37:00;26.20;99.90
52323;DHT22;38263;52.920;6.238;2022-09-06T11:39:30;26.20;99.90
52323;DHT22;38263;52.920;6.238;2022-09-06T11:41:56;26.20;99.90
52323;DHT22;38263;52.920;6.238;2022-09-06T11:44:51;26.30;99.90
52323;DHT22;38263;52.920;6.238;2022-09-06T11:47:40;26.60;99.90
52323;DHT22;38263;52.920;6.238;2022-09-06T11:57:58;26.80;99.90
52323;DHT22;38263;52.920;6.238;2022-09-06T12:00:24;26.80;99.90
52323;DHT22;38263;52.920;6.238;2022-09-06T12:02:51;26.80;99.90
52323;DHT22;38263;52.920;6.238;2022-09-06T12:05:26;27.10;99.90
52323;DHT22;38263;52.920;6.238;2022-09-06T12:08:23;26.80;99.90
52323;DHT22;38263;52.920;6.238;2022-09-06T12:16:12;27.10;99.90
52323;DHT22;38263;52.920;6.238;2022-09-06T12:23:56;26.70;99.90
52323;DHT22;38263;52.920;6.238;2022-09-06T12:29:16;26.90;99.90
52323;DHT22;38263;52.920;6.238;2022-09-06T12:31:45;26.70;99.90
52323;DHT22;38263;52.920;6.238;2022-09-06T12:34:20;27.10;99.90
52323;DHT22;38263;52.920;6.238;2022-09-06T12:37:09;26.90;99.90
52323;DHT22;38263;52.920;6.238;2022-09-06T12:39:35;28.60;99.90
52323;DHT22;38263;52.920;6.238;2022-09-06T12:42:04;27.10;99.90
52323;DHT22;38263;52.920;6.238;2022-09-06T12:44:35;27.10;99.90
52323;DHT22;38263;52.920;6.238;2022-09-06T12:47:10;27.00;99.90
52323;DHT22;38263;52.920;6.238;2022-09-06T12:49:38;26.80;99.90
52323;DHT22;38263;52.920;6.238;2022-09-06T12:52:15;26.90;99.90
52323;DHT22;38263;52.920;6.238;2022-09-06T12:54:48;27.90;99.90
52323;DHT22;38263;52.920;6.238;2022-09-06T12:57:23;27.10;99.90
52323;DHT22;38263;52.920;6.238;2022-09-06T12:59:49;27.20;99.90
52323;DHT22;38263;52.920;6.238;2022-09-06T13:02:21;29.10;99.90
52323;DHT22;38263;52.920;6.238;2022-09-06T13:04:58;27.30;99.90
52323;DHT22;38263;52.920;6.238;2022-09-06T13:07:25;27.40;99.90
52323;DHT22;38263;52.920;6.238;2022-09-06T13:09:54;27.40;99.90
52323;DHT22;38263;52.920;6.238;2022-09-06T13:12:33;27.50;99.90
52323;DHT22;38263;52.920;6.238;2022-09-06T13:15:24;27.70;99.90
52323;DHT22;38263;52.920;6.238;2022-09-06T13:18:16;27.60;99.90
52323;DHT22;38263;52.920;6.238;2022-09-06T13:20:37;27.70;99.90
52323;DHT22;38263;52.920;6.238;2022-09-06T13:23:11;27.50;99.90
52323;DHT22;38263;52.920;6.238;2022-09-06T13:25:51;27.90;99.90
52323;DHT22;38263;52.920;6.238;2022-09-06T13:28:26;27.80;99.90
52323;DHT22;38263;52.920;6.238;2022-09-06T13:31:19;27.80;99.90
52323;DHT22;38263;52.920;6.238;2022-09-06T13:33:57;27.80;99.90
52323;DHT22;38263;52.920;6.238;2022-09-06T13:36:26;27.80;99.90
52323;DHT22;38263;52.920;6.238;2022-09-06T13:38:54;27.70;99.90
52323;DHT22;38263;52.920;6.238;2022-09-06T13:44:07;27.80;99.90
52323;DHT22;38263;52.920;6.238;2022-09-06T13:46:40;27.90;99.90
52323;DHT22;38263;52.920;6.238;2022-09-06T13:49:06;27.70;99.90
52323;DHT22;38263;52.920;6.238;2022-09-06T13:51:33;27.70;99.90
52323;DHT22;38263;52.920;6.238;2022-09-06T13:58:48;28.40;99.90
52323;DHT22;38263;52.920;6.238;2022-09-06T14:01:17;27.90;99.90
52323;DHT22;38263;52.920;6.238;2022-09-06T14:04:37;27.70;99.90
52323;DHT22;38263;52.920;6.238;2022-09-06T14:14:17;28.70;99.90
52323;DHT22;38263;52.920;6.238;2022-09-06T14:16:43;28.00;99.90
52323;DHT22;38263;52.920;6.238;2022-09-06T14:19:09;27.80;99.90
52323;DHT22;38263;52.920;6.238;2022-09-06T14:21:35;28.10;99.90
52323;DHT22;38263;52.920;6.238;2022-09-06T14:24:01;27.90;99.90
52323;DHT22;38263;52.920;6.238;2022-09-06T14:26:28;28.00;99.90
52323;DHT22;38263;52.920;6.238;2022-09-06T14:28:54;28.10;99.90
52323;DHT22;38263;52.920;6.238;2022-09-06T14:31:23;28.20;99.90
52323;DHT22;38263;52.920;6.238;2022-09-06T14:33:50;28.30;99.90
52323;DHT22;38263;52.920;6.238;2022-09-06T14:36:18;28.30;99.90
52323;DHT22;38263;52.920;6.238;2022-09-06T14:38:44;28.50;99.90
52323;DHT22;38263;52.920;6.238;2022-09-06T14:41:11;28.30;99.90
52323;DHT22;38263;52.920;6.238;2022-09-06T14:43:40;28.50;99.90
52323;DHT22;38263;52.920;6.238;2022-09-06T14:46:08;28.40;99.90
52323;DHT22;38263;52.920;6.238;2022-09-06T14:48:34;28.40;99.90
52323;DHT22;38263;52.920;6.238;2022-09-06T14:51:20;28.40;99.90
52323;DHT22;38263;52.920;6.238;2022-09-06T14:53:49;28.60;99.90
52323;DHT22;38263;52.920;6.238;2022-09-06T14:56:15;28.70;99.90
52323;DHT22;38263;52.920;6.238;2022-09-06T14:58:41;30.10;99.90
52323;DHT22;38263;52.920;6.238;2022-09-06T15:01:09;28.70;99.90
52323;DHT22;38263;52.920;6.238;2022-09-06T15:03:38;28.40;99.90
52323;DHT22;38263;52.920;6.238;2022-09-06T15:06:05;28.50;99.90
52323;DHT22;38263;52.920;6.238;2022-09-06T15:08:31;28.50;99.90
52323;DHT22;38263;52.920;6.238;2022-09-06T15:10:57;28.60;99.90
52323;DHT22;38263;52.920;6.238;2022-09-06T15:13:23;29.20;99.90
52323;DHT22;38263;52.920;6.238;2022-09-06T15:15:49;28.70;99.90
52323;DHT22;38263;52.920;6.238;2022-09-06T15:18:15;28.70;99.90
52323;DHT22;38263;52.920;6.238;2022-09-06T15:20:41;28.50;99.90
52323;DHT22;38263;52.920;6.238;2022-09-06T15:23:07;28.20;99.90
52323;DHT22;38263;52.920;6.238;2022-09-06T15:25:33;28.40;99.90
52323;DHT22;38263;52.920;6.238;2022-09-06T15:27:59;28.10;99.90
52323;DHT22;38263;52.920;6.238;2022-09-06T15:30:24;28.20;99.90
52323;DHT22;38263;52.920;6.238;2022-09-06T15:36:31;28.20;99.90
52323;DHT22;38263;52.920;6.238;2022-09-06T15:39:02;30.80;99.90
52323;DHT22;38263;52.920;6.238;2022-09-06T15:41:30;28.50;99.90
52323;DHT22;38263;52.920;6.238;2022-09-06T15:43:58;28.50;99.90
52323;DHT22;38263;52.920;6.238;2022-09-06T15:48:59;28.70;99.90
52323;DHT22;38263;52.920;6.238;2022-09-06T15:51:27;28.30;99.90
52323;DHT22;38263;52.920;6.238;2022-09-06T15:53:53;28.30;99.90
52323;DHT22;38263;52.920;6.238;2022-09-06T15:56:19;28.10;99.90
52323;DHT22;38263;52.920;6.238;2022-09-06T15:58:45;29.60;99.90
52323;DHT22;38263;52.920;6.238;2022-09-06T16:01:14;29.30;99.90
52323;DHT22;38263;52.920;6.238;2022-09-06T16:06:37;28.40;99.90
52323;DHT22;38263;52.920;6.238;2022-09-06T16:09:12;28.40;99.90
52323;DHT22;38263;52.920;6.238;2022-09-06T16:11:38;28.40;99.90
52323;DHT22;38263;52.920;6.238;2022-09-06T16:14:06;28.40;99.90
52323;DHT22;38263;52.920;6.238;2022-09-06T16:16:33;28.40;99.90
52323;DHT22;38263;52.920;6.238;2022-09-06T16:18:59;28.20;99.90
52323;DHT22;38263;52.920;6.238;2022-09-06T16:21:27;28.70;99.90
52323;DHT22;38263;52.920;6.238;2022-09-06T16:24:05;28.50;99.90
52323;DHT22;38263;52.920;6.238;2022-09-06T16:26:33;28.40;99.90
52323;DHT22;38263;52.920;6.238;2022-09-06T16:29:00;28.30;99.90
52323;DHT22;38263;52.920;6.238;2022-09-06T16:31:26;29.60;99.90
52323;DHT22;38263;52.920;6.238;2022-09-06T16:33:53;27.90;99.90
52323;DHT22;38263;52.920;6.238;2022-09-06T16:36:20;28.10;99.90
52323;DHT22;38263;52.920;6.238;2022-09-06T16:38:47;27.60;99.90
52323;DHT22;38263;52.920;6.238;2022-09-06T16:41:17;27.60;99.90
52323;DHT22;38263;52.920;6.238;2022-09-06T16:43:43;27.30;99.90
52323;DHT22;38263;52.920;6.238;2022-09-06T16:46:10;27.20;99.90
52323;DHT22;38263;52.920;6.238;2022-09-06T16:48:36;27.20;99.90
52323;DHT22;38263;52.920;6.238;2022-09-06T16:51:16;27.00;99.90
52323;DHT22;38263;52.920;6.238;2022-09-06T16:53:44;26.80;99.90
52323;DHT22;38263;52.920;6.238;2022-09-06T16:56:12;26.80;99.90
52323;DHT22;38263;52.920;6.238;2022-09-06T16:58:38;26.80;99.90
52323;DHT22;38263;52.920;6.238;2022-09-06T17:01:06;26.50;99.90
52323;DHT22;38263;52.920;6.238;2022-09-06T17:03:35;26.50;99.90
52323;DHT22;38263;52.920;6.238;2022-09-06T17:06:00;26.50;99.90
52323;DHT22;38263;52.920;6.238;2022-09-06T17:08:29;26.20;99.90
52323;DHT22;38263;52.920;6.238;2022-09-06T17:11:06;26.30;99.90
52323;DHT22;38263;52.920;6.238;2022-09-06T17:13:32;26.50;99.90
52323;DHT22;38263;52.920;6.238;2022-09-06T17:15:57;26.30;99.90
52323;DHT22;38263;52.920;6.238;2022-09-06T17:18:42;26.10;99.90
52323;DHT22;38263;52.920;6.238;2022-09-06T17:21:08;26.60;99.90
52323;DHT22;38263;52.920;6.238;2022-09-06T17:23:35;26.00;99.90
52323;DHT22;38263;52.920;6.238;2022-09-06T17:26:00;27.80;99.90